Delta Virtual Airport Information Service

Abu Dhabi International Airport

ICAO: OMAA Country: United Arab Emirates
Latitude: 24.433 Longitude: 54.6511
Latest Arrival : DAC550 (TBPB-OMAA) Latest Departure : DAC551 (OMAA-VQPR)


WX CaptureLIVE
Data provided by noaa.gov | Fetched at 10:10:06

METAR : OMAA 151400Z 31009KT CAVOK 37/15 Q0996 NOSIG

TAF : OMAA 151100Z 1512/1618 30012KT 7000 NSC PROB30 1512/1515 3000 DU BECMG 1516/1518 18005KT BECMG 1605/1607 30012KT


Runway Data for OMAA
Data provided by openaviationdata.com

Runway ID Mag Var Hdg Length Elevation Surface ILS Freq ILS Id ILS Slope
13 1 126° 13463 ft 88 ft Asphalt 108.9 IAE 3
31 1 306° 13463 ft 88 ft Asphalt 109.3 IAW 3

Abu Dhabi International Airport, United Arab Emirates
Use only for reference purposes



Not for navigational purposes.